sensor_id;sensor_type;location;lat;lon;timestamp;temperature;humidity
19829;DHT22;10075;50.924;4.396;2022-12-24T00:01:41;12.10;99.90
19829;DHT22;10075;50.924;4.396;2022-12-24T00:04:08;12.10;99.90
19829;DHT22;10075;50.924;4.396;2022-12-24T00:06:36;12.10;99.90
19829;DHT22;10075;50.924;4.396;2022-12-24T00:09:03;12.00;99.90
19829;DHT22;10075;50.924;4.396;2022-12-24T00:11:30;12.10;99.90
19829;DHT22;10075;50.924;4.396;2022-12-24T00:13:57;12.10;99.90
19829;DHT22;10075;50.924;4.396;2022-12-24T00:16:24;12.10;99.90
19829;DHT22;10075;50.924;4.396;2022-12-24T00:18:53;12.00;99.90
19829;DHT22;10075;50.924;4.396;2022-12-24T00:21:20;12.10;99.90
19829;DHT22;10075;50.924;4.396;2022-12-24T00:23:47;12.10;99.90
19829;DHT22;10075;50.924;4.396;2022-12-24T00:26:14;12.20;99.90
19829;DHT22;10075;50.924;4.396;2022-12-24T00:28:41;12.20;99.90
19829;DHT22;10075;50.924;4.396;2022-12-24T00:31:09;12.10;99.90
19829;DHT22;10075;50.924;4.396;2022-12-24T00:33:37;12.10;99.90
19829;DHT22;10075;50.924;4.396;2022-12-24T00:36:07;12.00;99.90
19829;DHT22;10075;50.924;4.396;2022-12-24T00:38:34;12.10;99.90
19829;DHT22;10075;50.924;4.396;2022-12-24T00:41:03;12.20;99.90
19829;DHT22;10075;50.924;4.396;2022-12-24T00:43:30;12.40;99.90
19829;DHT22;10075;50.924;4.396;2022-12-24T00:45:58;12.40;99.90
19829;DHT22;10075;50.924;4.396;2022-12-24T00:48:26;12.20;99.90
19829;DHT22;10075;50.924;4.396;2022-12-24T00:50:53;12.20;99.90
19829;DHT22;10075;50.924;4.396;2022-12-24T00:53:21;12.30;99.90
19829;DHT22;10075;50.924;4.396;2022-12-24T00:55:48;12.10;99.90
19829;DHT22;10075;50.924;4.396;2022-12-24T00:58:15;12.10;99.90
19829;DHT22;10075;50.924;4.396;2022-12-24T01:00:42;12.20;99.90
19829;DHT22;10075;50.924;4.396;2022-12-24T01:03:09;12.20;99.90
19829;DHT22;10075;50.924;4.396;2022-12-24T01:05:36;12.20;99.90
19829;DHT22;10075;50.924;4.396;2022-12-24T01:08:03;12.20;99.90
19829;DHT22;10075;50.924;4.396;2022-12-24T01:10:31;12.20;99.90
19829;DHT22;10075;50.924;4.396;2022-12-24T01:13:00;12.20;99.90
19829;DHT22;10075;50.924;4.396;2022-12-24T01:15:28;12.10;99.90
19829;DHT22;10075;50.924;4.396;2022-12-24T01:17:55;12.30;99.90
19829;DHT22;10075;50.924;4.396;2022-12-24T01:20:23;12.30;99.90
19829;DHT22;10075;50.924;4.396;2022-12-24T01:22:51;12.10;99.90
19829;DHT22;10075;50.924;4.396;2022-12-24T01:25:18;12.00;99.90
19829;DHT22;10075;50.924;4.396;2022-12-24T01:27:47;11.90;99.90
19829;DHT22;10075;50.924;4.396;2022-12-24T01:30:16;11.80;99.90
19829;DHT22;10075;50.924;4.396;2022-12-24T01:32:43;11.80;99.90
19829;DHT22;10075;50.924;4.396;2022-12-24T01:35:10;11.90;99.90
19829;DHT22;10075;50.924;4.396;2022-12-24T01:37:38;11.90;99.90
19829;DHT22;10075;50.924;4.396;2022-12-24T01:40:07;11.80;99.90
19829;DHT22;10075;50.924;4.396;2022-12-24T01:42:54;11.70;99.90
19829;DHT22;10075;50.924;4.396;2022-12-24T01:45:47;11.70;99.90
19829;DHT22;10075;50.924;4.396;2022-12-24T01:48:31;11.60;99.90
19829;DHT22;10075;50.924;4.396;2022-12-24T01:51:02;11.50;99.90
19829;DHT22;10075;50.924;4.396;2022-12-24T01:53:30;11.30;99.90
19829;DHT22;10075;50.924;4.396;2022-12-24T01:55:58;11.30;99.90
19829;DHT22;10075;50.924;4.396;2022-12-24T01:58:27;11.30;99.90
19829;DHT22;10075;50.924;4.396;2022-12-24T02:00:54;11.40;99.90
19829;DHT22;10075;50.924;4.396;2022-12-24T02:03:21;11.50;99.90
19829;DHT22;10075;50.924;4.396;2022-12-24T02:05:50;11.60;99.90
19829;DHT22;10075;50.924;4.396;2022-12-24T02:08:18;11.70;99.90
19829;DHT22;10075;50.924;4.396;2022-12-24T02:10:46;11.70;99.90
19829;DHT22;10075;50.924;4.396;2022-12-24T02:13:16;11.80;99.90
19829;DHT22;10075;50.924;4.396;2022-12-24T02:16:05;11.80;99.90
19829;DHT22;10075;50.924;4.396;2022-12-24T02:18:42;11.70;99.90
19829;DHT22;10075;50.924;4.396;2022-12-24T02:21:29;11.70;99.90
19829;DHT22;10075;50.924;4.396;2022-12-24T02:30:20;11.80;99.90
19829;DHT22;10075;50.924;4.396;2022-12-24T02:33:13;11.70;99.90
19829;DHT22;10075;50.924;4.396;2022-12-24T02:35:49;11.80;99.90
19829;DHT22;10075;50.924;4.396;2022-12-24T02:38:21;11.70;99.90
19829;DHT22;10075;50.924;4.396;2022-12-24T02:40:53;11.80;99.90
19829;DHT22;10075;50.924;4.396;2022-12-24T02:43:24;11.80;99.90
19829;DHT22;10075;50.924;4.396;2022-12-24T02:45:57;11.70;99.90
19829;DHT22;10075;50.924;4.396;2022-12-24T02:48:25;11.70;99.90
19829;DHT22;10075;50.924;4.396;2022-12-24T02:51:04;11.60;99.90
19829;DHT22;10075;50.924;4.396;2022-12-24T02:53:32;11.60;99.90
19829;DHT22;10075;50.924;4.396;2022-12-24T02:56:22;11.60;99.90
19829;DHT22;10075;50.924;4.396;2022-12-24T02:59:04;11.70;99.90
19829;DHT22;10075;50.924;4.396;2022-12-24T03:01:44;11.80;99.90
19829;DHT22;10075;50.924;4.396;2022-12-24T03:04:21;11.80;99.90
19829;DHT22;10075;50.924;4.396;2022-12-24T03:07:09;11.80;99.90
19829;DHT22;10075;50.924;4.396;2022-12-24T03:09:41;11.80;99.90
19829;DHT22;10075;50.924;4.396;2022-12-24T03:12:14;11.80;99.90
19829;DHT22;10075;50.924;4.396;2022-12-24T03:14:43;11.90;99.90
19829;DHT22;10075;50.924;4.396;2022-12-24T03:17:12;11.90;99.90
19829;DHT22;10075;50.924;4.396;2022-12-24T03:19:40;12.00;99.90
19829;DHT22;10075;50.924;4.396;2022-12-24T03:22:09;12.10;99.90
19829;DHT22;10075;50.924;4.396;2022-12-24T03:24:37;12.10;99.90
19829;DHT22;10075;50.924;4.396;2022-12-24T03:27:05;11.90;99.90
19829;DHT22;10075;50.924;4.396;2022-12-24T03:29:34;11.80;99.90
19829;DHT22;10075;50.924;4.396;2022-12-24T03:32:03;11.80;99.90
19829;DHT22;10075;50.924;4.396;2022-12-24T03:34:31;11.90;99.90
19829;DHT22;10075;50.924;4.396;2022-12-24T03:36:58;12.00;99.90
19829;DHT22;10075;50.924;4.396;2022-12-24T03:39:25;11.90;99.90
19829;DHT22;10075;50.924;4.396;2022-12-24T03:41:52;12.00;99.90
19829;DHT22;10075;50.924;4.396;2022-12-24T03:44:19;12.00;99.90
19829;DHT22;10075;50.924;4.396;2022-12-24T03:46:47;12.00;99.90
19829;DHT22;10075;50.924;4.396;2022-12-24T03:49:14;12.10;99.90
19829;DHT22;10075;50.924;4.396;2022-12-24T03:51:42;12.00;99.90
19829;DHT22;10075;50.924;4.396;2022-12-24T03:54:09;11.90;99.90
19829;DHT22;10075;50.924;4.396;2022-12-24T03:56:36;11.90;99.90
19829;DHT22;10075;50.924;4.396;2022-12-24T03:59:03;11.80;99.90
19829;DHT22;10075;50.924;4.396;2022-12-24T04:01:30;11.80;99.90
19829;DHT22;10075;50.924;4.396;2022-12-24T04:03:57;11.80;99.90
19829;DHT22;10075;50.924;4.396;2022-12-24T04:06:24;11.90;99.90
19829;DHT22;10075;50.924;4.396;2022-12-24T04:08:53;12.00;99.90
19829;DHT22;10075;50.924;4.396;2022-12-24T04:11:20;11.90;99.90
19829;DHT22;10075;50.924;4.396;2022-12-24T04:13:47;11.80;99.90
19829;DHT22;10075;50.924;4.396;2022-12-24T04:16:15;11.60;99.90
19829;DHT22;10075;50.924;4.396;2022-12-24T04:18:43;11.70;99.90
19829;DHT22;10075;50.924;4.396;2022-12-24T04:21:10;11.60;99.90
19829;DHT22;10075;50.924;4.396;2022-12-24T04:23:39;11.50;99.90
19829;DHT22;10075;50.924;4.396;2022-12-24T04:26:10;11.50;99.90
19829;DHT22;10075;50.924;4.396;2022-12-24T04:28:40;11.60;99.90
19829;DHT22;10075;50.924;4.396;2022-12-24T04:31:10;11.60;99.90
19829;DHT22;10075;50.924;4.396;2022-12-24T04:33:37;11.60;99.90
19829;DHT22;10075;50.924;4.396;2022-12-24T04:36:06;11.60;99.90
19829;DHT22;10075;50.924;4.396;2022-12-24T04:38:34;11.60;99.90
19829;DHT22;10075;50.924;4.396;2022-12-24T04:41:02;11.70;99.90
19829;DHT22;10075;50.924;4.396;2022-12-24T04:43:31;11.60;99.90
19829;DHT22;10075;50.924;4.396;2022-12-24T04:46:04;11.60;99.90
19829;DHT22;10075;50.924;4.396;2022-12-24T04:48:31;11.70;99.90
19829;DHT22;10075;50.924;4.396;2022-12-24T04:51:00;11.70;99.90
19829;DHT22;10075;50.924;4.396;2022-12-24T04:53:28;11.60;99.90
19829;DHT22;10075;50.924;4.396;2022-12-24T04:55:55;11.70;99.90
19829;DHT22;10075;50.924;4.396;2022-12-24T04:58:22;11.70;99.90
19829;DHT22;10075;50.924;4.396;2022-12-24T05:00:51;11.70;99.90
19829;DHT22;10075;50.924;4.396;2022-12-24T05:03:18;11.70;99.90
19829;DHT22;10075;50.924;4.396;2022-12-24T05:05:45;11.70;99.90
19829;DHT22;10075;50.924;4.396;2022-12-24T05:08:12;11.80;99.90
19829;DHT22;10075;50.924;4.396;2022-12-24T05:10:40;11.80;99.90
19829;DHT22;10075;50.924;4.396;2022-12-24T05:13:07;11.80;99.90
19829;DHT22;10075;50.924;4.396;2022-12-24T05:15:34;11.70;99.90
19829;DHT22;10075;50.924;4.396;2022-12-24T05:18:02;11.60;99.90
19829;DHT22;10075;50.924;4.396;2022-12-24T05:20:29;11.60;99.90
19829;DHT22;10075;50.924;4.396;2022-12-24T05:22:56;11.60;99.90
19829;DHT22;10075;50.924;4.396;2022-12-24T05:25:41;11.50;99.90
19829;DHT22;10075;50.924;4.396;2022-12-24T05:28:25;11.50;99.90
19829;DHT22;10075;50.924;4.396;2022-12-24T05:30:52;11.40;99.90
19829;DHT22;10075;50.924;4.396;2022-12-24T05:33:21;11.30;99.90
19829;DHT22;10075;50.924;4.396;2022-12-24T05:35:50;11.30;99.90
19829;DHT22;10075;50.924;4.396;2022-12-24T05:38:17;11.30;99.90
19829;DHT22;10075;50.924;4.396;2022-12-24T05:40:45;11.40;99.90
19829;DHT22;10075;50.924;4.396;2022-12-24T05:43:12;11.50;99.90
19829;DHT22;10075;50.924;4.396;2022-12-24T05:45:39;11.60;99.90
19829;DHT22;10075;50.924;4.396;2022-12-24T05:48:06;11.60;99.90
19829;DHT22;10075;50.924;4.396;2022-12-24T05:50:37;11.60;99.90
19829;DHT22;10075;50.924;4.396;2022-12-24T05:53:05;11.60;99.90
19829;DHT22;10075;50.924;4.396;2022-12-24T05:55:32;11.70;99.90
19829;DHT22;10075;50.924;4.396;2022-12-24T05:57:59;11.70;99.90
19829;DHT22;10075;50.924;4.396;2022-12-24T06:00:26;11.60;99.90
19829;DHT22;10075;50.924;4.396;2022-12-24T06:02:53;11.60;99.90
19829;DHT22;10075;50.924;4.396;2022-12-24T06:05:20;11.60;99.90
19829;DHT22;10075;50.924;4.396;2022-12-24T06:07:49;11.70;99.90
19829;DHT22;10075;50.924;4.396;2022-12-24T06:10:16;11.60;99.90
19829;DHT22;10075;50.924;4.396;2022-12-24T06:12:44;11.60;99.90
19829;DHT22;10075;50.924;4.396;2022-12-24T06:15:11;11.60;99.90
19829;DHT22;10075;50.924;4.396;2022-12-24T06:17:38;11.50;99.90
19829;DHT22;10075;50.924;4.396;2022-12-24T06:20:07;11.60;99.90
19829;DHT22;10075;50.924;4.396;2022-12-24T06:22:34;11.60;99.90
19829;DHT22;10075;50.924;4.396;2022-12-24T06:25:03;11.70;99.90
19829;DHT22;10075;50.924;4.396;2022-12-24T06:27:30;11.60;99.90
19829;DHT22;10075;50.924;4.396;2022-12-24T06:29:57;11.50;99.90
19829;DHT22;10075;50.924;4.396;2022-12-24T06:32:24;11.50;99.90
19829;DHT22;10075;50.924;4.396;2022-12-24T06:34:52;11.60;99.90
19829;DHT22;10075;50.924;4.396;2022-12-24T06:37:19;11.50;99.90
19829;DHT22;10075;50.924;4.396;2022-12-24T06:39:46;11.50;99.90
19829;DHT22;10075;50.924;4.396;2022-12-24T06:42:15;11.50;99.90
19829;DHT22;10075;50.924;4.396;2022-12-24T06:44:42;11.40;99.90
19829;DHT22;10075;50.924;4.396;2022-12-24T06:47:09;11.40;99.90
19829;DHT22;10075;50.924;4.396;2022-12-24T06:49:36;11.50;99.90
19829;DHT22;10075;50.924;4.396;2022-12-24T06:52:03;11.40;99.90
19829;DHT22;10075;50.924;4.396;2022-12-24T06:54:30;11.50;99.90
19829;DHT22;10075;50.924;4.396;2022-12-24T06:56:57;11.50;99.90
19829;DHT22;10075;50.924;4.396;2022-12-24T06:59:26;11.40;99.90
19829;DHT22;10075;50.924;4.396;2022-12-24T07:01:53;11.40;99.90
19829;DHT22;10075;50.924;4.396;2022-12-24T07:04:20;11.60;99.90
19829;DHT22;10075;50.924;4.396;2022-12-24T07:06:47;11.50;99.90
19829;DHT22;10075;50.924;4.396;2022-12-24T07:09:14;11.60;99.90
19829;DHT22;10075;50.924;4.396;2022-12-24T07:11:41;11.60;99.90
19829;DHT22;10075;50.924;4.396;2022-12-24T07:14:08;11.50;99.90
19829;DHT22;10075;50.924;4.396;2022-12-24T07:16:37;11.70;99.90
19829;DHT22;10075;50.924;4.396;2022-12-24T07:19:04;11.70;99.90
19829;DHT22;10075;50.924;4.396;2022-12-24T07:21:31;11.60;99.90
19829;DHT22;10075;50.924;4.396;2022-12-24T07:23:58;11.60;99.90
19829;DHT22;10075;50.924;4.396;2022-12-24T07:26:25;11.50;99.90
19829;DHT22;10075;50.924;4.396;2022-12-24T07:28:52;11.40;99.90
19829;DHT22;10075;50.924;4.396;2022-12-24T07:31:19;11.50;99.90
19829;DHT22;10075;50.924;4.396;2022-12-24T07:33:48;11.50;99.90
19829;DHT22;10075;50.924;4.396;2022-12-24T07:36:18;11.40;99.90
19829;DHT22;10075;50.924;4.396;2022-12-24T07:38:46;11.40;99.90
19829;DHT22;10075;50.924;4.396;2022-12-24T07:41:13;11.40;99.90
19829;DHT22;10075;50.924;4.396;2022-12-24T07:43:40;11.50;99.90
19829;DHT22;10075;50.924;4.396;2022-12-24T07:46:07;11.40;99.90
19829;DHT22;10075;50.924;4.396;2022-12-24T07:48:35;11.50;99.90
19829;DHT22;10075;50.924;4.396;2022-12-24T07:51:03;11.40;99.90
19829;DHT22;10075;50.924;4.396;2022-12-24T07:53:31;11.40;99.90
19829;DHT22;10075;50.924;4.396;2022-12-24T07:55:59;11.40;99.90
19829;DHT22;10075;50.924;4.396;2022-12-24T07:58:26;11.30;99.90
19829;DHT22;10075;50.924;4.396;2022-12-24T08:00:57;11.40;99.90
19829;DHT22;10075;50.924;4.396;2022-12-24T08:03:25;11.40;99.90
19829;DHT22;10075;50.924;4.396;2022-12-24T08:05:53;11.20;99.90
19829;DHT22;10075;50.924;4.396;2022-12-24T08:08:21;11.30;99.90
19829;DHT22;10075;50.924;4.396;2022-12-24T08:10:48;11.30;99.90
19829;DHT22;10075;50.924;4.396;2022-12-24T08:13:15;11.30;99.90
19829;DHT22;10075;50.924;4.396;2022-12-24T08:15:43;11.20;99.90
19829;DHT22;10075;50.924;4.396;2022-12-24T08:18:11;11.20;99.90
19829;DHT22;10075;50.924;4.396;2022-12-24T08:20:38;11.30;99.90
19829;DHT22;10075;50.924;4.396;2022-12-24T08:23:06;11.40;99.90
19829;DHT22;10075;50.924;4.396;2022-12-24T08:25:35;11.50;99.90
19829;DHT22;10075;50.924;4.396;2022-12-24T08:28:02;11.50;99.90
19829;DHT22;10075;50.924;4.396;2022-12-24T08:30:29;11.70;99.90
19829;DHT22;10075;50.924;4.396;2022-12-24T08:32:56;11.60;99.90
19829;DHT22;10075;50.924;4.396;2022-12-24T08:35:23;11.60;99.90
19829;DHT22;10075;50.924;4.396;2022-12-24T08:37:50;11.50;99.90
19829;DHT22;10075;50.924;4.396;2022-12-24T08:40:18;11.50;99.90
19829;DHT22;10075;50.924;4.396;2022-12-24T08:42:46;11.60;99.90
19829;DHT22;10075;50.924;4.396;2022-12-24T08:45:14;11.70;99.90
19829;DHT22;10075;50.924;4.396;2022-12-24T08:47:41;11.80;99.90
19829;DHT22;10075;50.924;4.396;2022-12-24T08:50:09;11.80;99.90
19829;DHT22;10075;50.924;4.396;2022-12-24T08:52:36;11.80;99.90
19829;DHT22;10075;50.924;4.396;2022-12-24T08:55:04;11.80;99.90
19829;DHT22;10075;50.924;4.396;2022-12-24T08:57:33;11.90;99.90
19829;DHT22;10075;50.924;4.396;2022-12-24T09:00:02;11.90;99.90
19829;DHT22;10075;50.924;4.396;2022-12-24T09:02:30;11.90;99.90
19829;DHT22;10075;50.924;4.396;2022-12-24T09:04:57;11.90;99.90
19829;DHT22;10075;50.924;4.396;2022-12-24T09:07:24;11.90;99.90
19829;DHT22;10075;50.924;4.396;2022-12-24T09:09:51;11.90;99.90
19829;DHT22;10075;50.924;4.396;2022-12-24T09:12:18;11.80;99.90
19829;DHT22;10075;50.924;4.396;2022-12-24T09:14:45;11.90;99.90
19829;DHT22;10075;50.924;4.396;2022-12-24T09:17:14;11.80;99.90
19829;DHT22;10075;50.924;4.396;2022-12-24T09:19:41;11.90;99.90
19829;DHT22;10075;50.924;4.396;2022-12-24T09:22:08;12.00;99.90
19829;DHT22;10075;50.924;4.396;2022-12-24T09:24:35;12.00;99.90
19829;DHT22;10075;50.924;4.396;2022-12-24T09:27:03;12.00;99.90
19829;DHT22;10075;50.924;4.396;2022-12-24T09:29:30;11.80;99.90
19829;DHT22;10075;50.924;4.396;2022-12-24T09:31:57;11.90;99.90
19829;DHT22;10075;50.924;4.396;2022-12-24T09:34:26;12.00;99.90
19829;DHT22;10075;50.924;4.396;2022-12-24T09:36:53;12.00;99.90
19829;DHT22;10075;50.924;4.396;2022-12-24T09:39:20;12.00;99.90
19829;DHT22;10075;50.924;4.396;2022-12-24T09:41:57;11.90;99.90
19829;DHT22;10075;50.924;4.396;2022-12-24T09:44:34;12.00;99.90
19829;DHT22;10075;50.924;4.396;2022-12-24T09:47:10;12.10;99.90
19829;DHT22;10075;50.924;4.396;2022-12-24T09:49:46;12.10;99.90
19829;DHT22;10075;50.924;4.396;2022-12-24T09:52:25;12.20;99.90
19829;DHT22;10075;50.924;4.396;2022-12-24T09:55:00;12.10;99.90
19829;DHT22;10075;50.924;4.396;2022-12-24T09:57:34;12.30;99.90
19829;DHT22;10075;50.924;4.396;2022-12-24T10:00:04;12.30;99.90
19829;DHT22;10075;50.924;4.396;2022-12-24T10:02:31;12.30;99.90
19829;DHT22;10075;50.924;4.396;2022-12-24T10:05:00;12.20;99.90
19829;DHT22;10075;50.924;4.396;2022-12-24T10:07:37;12.30;99.90
19829;DHT22;10075;50.924;4.396;2022-12-24T10:10:16;12.30;99.90
19829;DHT22;10075;50.924;4.396;2022-12-24T10:12:50;12.40;99.90
19829;DHT22;10075;50.924;4.396;2022-12-24T10:15:25;12.30;99.90
19829;DHT22;10075;50.924;4.396;2022-12-24T10:18:05;12.40;99.90
19829;DHT22;10075;50.924;4.396;2022-12-24T10:20:41;12.60;99.90
19829;DHT22;10075;50.924;4.396;2022-12-24T10:23:16;12.80;99.90
19829;DHT22;10075;50.924;4.396;2022-12-24T10:25:48;12.90;99.90
19829;DHT22;10075;50.924;4.396;2022-12-24T10:28:22;12.70;99.90
19829;DHT22;10075;50.924;4.396;2022-12-24T10:30:56;12.70;99.90
19829;DHT22;10075;50.924;4.396;2022-12-24T10:33:30;12.90;99.90
19829;DHT22;10075;50.924;4.396;2022-12-24T10:35:59;12.90;99.90
19829;DHT22;10075;50.924;4.396;2022-12-24T10:38:26;12.90;99.90
19829;DHT22;10075;50.924;4.396;2022-12-24T10:40:54;13.00;99.90
19829;DHT22;10075;50.924;4.396;2022-12-24T10:43:26;13.00;99.90
19829;DHT22;10075;50.924;4.396;2022-12-24T10:45:56;13.00;99.90
19829;DHT22;10075;50.924;4.396;2022-12-24T10:48:27;13.10;99.90
19829;DHT22;10075;50.924;4.396;2022-12-24T10:51:01;13.20;99.90
19829;DHT22;10075;50.924;4.396;2022-12-24T10:53:36;13.10;99.90
19829;DHT22;10075;50.924;4.396;2022-12-24T10:56:07;13.10;99.90
19829;DHT22;10075;50.924;4.396;2022-12-24T10:58:35;13.20;99.90
19829;DHT22;10075;50.924;4.396;2022-12-24T11:01:03;13.30;99.90
19829;DHT22;10075;50.924;4.396;2022-12-24T11:03:31;13.40;99.90
19829;DHT22;10075;50.924;4.396;2022-12-24T11:06:11;13.30;99.90
19829;DHT22;10075;50.924;4.396;2022-12-24T11:08:40;13.30;99.90
19829;DHT22;10075;50.924;4.396;2022-12-24T11:11:10;13.20;99.90
19829;DHT22;10075;50.924;4.396;2022-12-24T11:13:39;13.20;99.90
19829;DHT22;10075;50.924;4.396;2022-12-24T11:16:14;13.00;99.90
19829;DHT22;10075;50.924;4.396;2022-12-24T11:18:48;13.00;99.90
19829;DHT22;10075;50.924;4.396;2022-12-24T11:21:22;13.10;99.90
19829;DHT22;10075;50.924;4.396;2022-12-24T11:23:53;13.20;99.90
19829;DHT22;10075;50.924;4.396;2022-12-24T11:26:23;13.20;99.90
19829;DHT22;10075;50.924;4.396;2022-12-24T11:29:14;13.10;99.90
19829;DHT22;10075;50.924;4.396;2022-12-24T11:31:42;13.10;99.90
19829;DHT22;10075;50.924;4.396;2022-12-24T11:34:26;13.10;99.90
19829;DHT22;10075;50.924;4.396;2022-12-24T11:37:07;13.00;99.90
19829;DHT22;10075;50.924;4.396;2022-12-24T11:39:38;13.00;99.90
19829;DHT22;10075;50.924;4.396;2022-12-24T11:42:06;13.00;99.90
19829;DHT22;10075;50.924;4.396;2022-12-24T11:44:48;13.10;99.90
19829;DHT22;10075;50.924;4.396;2022-12-24T11:47:16;13.30;99.90
19829;DHT22;10075;50.924;4.396;2022-12-24T11:49:43;13.40;99.90
19829;DHT22;10075;50.924;4.396;2022-12-24T11:52:22;13.40;99.90
19829;DHT22;10075;50.924;4.396;2022-12-24T11:55:00;13.40;99.90
19829;DHT22;10075;50.924;4.396;2022-12-24T11:57:33;13.40;99.90
19829;DHT22;10075;50.924;4.396;2022-12-24T12:00:07;13.60;99.90
19829;DHT22;10075;50.924;4.396;2022-12-24T12:02:37;13.60;99.90
19829;DHT22;10075;50.924;4.396;2022-12-24T12:05:09;13.70;99.90
19829;DHT22;10075;50.924;4.396;2022-12-24T12:07:39;13.90;99.90
19829;DHT22;10075;50.924;4.396;2022-12-24T12:10:14;13.90;99.90
19829;DHT22;10075;50.924;4.396;2022-12-24T12:12:44;14.00;99.90
19829;DHT22;10075;50.924;4.396;2022-12-24T12:15:14;14.00;99.90
19829;DHT22;10075;50.924;4.396;2022-12-24T12:17:46;13.80;99.90
19829;DHT22;10075;50.924;4.396;2022-12-24T12:20:18;13.70;99.90
19829;DHT22;10075;50.924;4.396;2022-12-24T12:22:54;13.90;99.90
19829;DHT22;10075;50.924;4.396;2022-12-24T12:25:29;13.90;99.90
19829;DHT22;10075;50.924;4.396;2022-12-24T12:28:00;13.80;99.90
19829;DHT22;10075;50.924;4.396;2022-12-24T12:30:30;13.70;99.90
19829;DHT22;10075;50.924;4.396;2022-12-24T12:33:00;13.50;99.90
19829;DHT22;10075;50.924;4.396;2022-12-24T12:35:31;13.40;99.90
19829;DHT22;10075;50.924;4.396;2022-12-24T12:38:05;13.30;99.90
19829;DHT22;10075;50.924;4.396;2022-12-24T12:40:56;13.40;99.90
19829;DHT22;10075;50.924;4.396;2022-12-24T12:43:47;13.60;99.90
19829;DHT22;10075;50.924;4.396;2022-12-24T12:46:26;13.70;99.90
19829;DHT22;10075;50.924;4.396;2022-12-24T12:49:16;14.00;99.90
19829;DHT22;10075;50.924;4.396;2022-12-24T12:51:52;14.30;99.90
19829;DHT22;10075;50.924;4.396;2022-12-24T12:54:34;14.40;99.90
19829;DHT22;10075;50.924;4.396;2022-12-24T12:57:06;14.40;99.90
19829;DHT22;10075;50.924;4.396;2022-12-24T12:59:37;14.50;99.90
19829;DHT22;10075;50.924;4.396;2022-12-24T13:05:24;14.50;99.90
19829;DHT22;10075;50.924;4.396;2022-12-24T13:08:15;14.40;99.90
19829;DHT22;10075;50.924;4.396;2022-12-24T13:11:08;14.30;99.90
19829;DHT22;10075;50.924;4.396;2022-12-24T13:13:47;14.40;99.90
19829;DHT22;10075;50.924;4.396;2022-12-24T13:16:44;14.20;99.90
19829;DHT22;10075;50.924;4.396;2022-12-24T13:19:25;14.30;99.90
19829;DHT22;10075;50.924;4.396;2022-12-24T13:21:58;14.40;99.90
19829;DHT22;10075;50.924;4.396;2022-12-24T13:24:26;14.60;99.90
19829;DHT22;10075;50.924;4.396;2022-12-24T13:27:01;14.60;99.90
19829;DHT22;10075;50.924;4.396;2022-12-24T13:29:38;14.40;99.90
19829;DHT22;10075;50.924;4.396;2022-12-24T13:35:30;14.50;99.90
19829;DHT22;10075;50.924;4.396;2022-12-24T13:38:29;14.40;99.90
19829;DHT22;10075;50.924;4.396;2022-12-24T13:44:17;14.30;99.90
19829;DHT22;10075;50.924;4.396;2022-12-24T13:46:54;14.30;99.90
19829;DHT22;10075;50.924;4.396;2022-12-24T13:49:28;14.30;99.90
19829;DHT22;10075;50.924;4.396;2022-12-24T13:52:07;14.30;99.90
19829;DHT22;10075;50.924;4.396;2022-12-24T13:54:41;14.20;99.90
19829;DHT22;10075;50.924;4.396;2022-12-24T13:57:26;14.20;99.90
19829;DHT22;10075;50.924;4.396;2022-12-24T13:59:59;14.20;99.90
19829;DHT22;10075;50.924;4.396;2022-12-24T14:02:31;14.20;99.90
19829;DHT22;10075;50.924;4.396;2022-12-24T14:05:02;14.10;99.90
19829;DHT22;10075;50.924;4.396;2022-12-24T14:07:33;14.00;99.90
19829;DHT22;10075;50.924;4.396;2022-12-24T14:10:02;13.80;99.90
19829;DHT22;10075;50.924;4.396;2022-12-24T14:12:48;13.70;99.90
19829;DHT22;10075;50.924;4.396;2022-12-24T14:15:56;13.70;99.90
19829;DHT22;10075;50.924;4.396;2022-12-24T14:18:27;13.90;99.90
19829;DHT22;10075;50.924;4.396;2022-12-24T14:20:56;14.00;99.90
19829;DHT22;10075;50.924;4.396;2022-12-24T14:23:43;14.10;99.90
19829;DHT22;10075;50.924;4.396;2022-12-24T14:26:15;14.10;99.90
19829;DHT22;10075;50.924;4.396;2022-12-24T14:28:45;14.20;99.90
19829;DHT22;10075;50.924;4.396;2022-12-24T14:31:18;14.40;99.90
19829;DHT22;10075;50.924;4.396;2022-12-24T14:33:45;14.40;99.90
19829;DHT22;10075;50.924;4.396;2022-12-24T14:36:17;14.50;99.90
19829;DHT22;10075;50.924;4.396;2022-12-24T14:38:46;14.40;99.90
19829;DHT22;10075;50.924;4.396;2022-12-24T14:41:38;14.40;99.90
19829;DHT22;10075;50.924;4.396;2022-12-24T14:44:12;14.40;99.90
19829;DHT22;10075;50.924;4.396;2022-12-24T14:46:47;14.30;99.90
19829;DHT22;10075;50.924;4.396;2022-12-24T14:49:31;14.20;99.90
19829;DHT22;10075;50.924;4.396;2022-12-24T14:52:09;14.20;99.90
19829;DHT22;10075;50.924;4.396;2022-12-24T14:54:40;14.20;99.90
19829;DHT22;10075;50.924;4.396;2022-12-24T14:57:13;14.10;99.90
19829;DHT22;10075;50.924;4.396;2022-12-24T14:59:43;14.00;99.90
19829;DHT22;10075;50.924;4.396;2022-12-24T15:02:35;13.90;99.90
19829;DHT22;10075;50.924;4.396;2022-12-24T15:05:05;13.80;99.90
19829;DHT22;10075;50.924;4.396;2022-12-24T15:07:33;13.70;99.90
19829;DHT22;10075;50.924;4.396;2022-12-24T15:10:02;13.60;99.90
19829;DHT22;10075;50.924;4.396;2022-12-24T15:12:30;13.60;99.90
19829;DHT22;10075;50.924;4.396;2022-12-24T15:14:58;13.50;99.90
19829;DHT22;10075;50.924;4.396;2022-12-24T15:17:26;13.50;99.90
19829;DHT22;10075;50.924;4.396;2022-12-24T15:19:54;13.50;99.90
19829;DHT22;10075;50.924;4.396;2022-12-24T15:22:25;13.50;99.90
19829;DHT22;10075;50.924;4.396;2022-12-24T15:24:54;13.50;99.90
19829;DHT22;10075;50.924;4.396;2022-12-24T15:27:23;13.30;99.90
19829;DHT22;10075;50.924;4.396;2022-12-24T15:29:53;13.20;99.90
19829;DHT22;10075;50.924;4.396;2022-12-24T15:32:21;13.10;99.90
19829;DHT22;10075;50.924;4.396;2022-12-24T15:34:51;13.10;99.90
19829;DHT22;10075;50.924;4.396;2022-12-24T15:37:21;13.20;99.90
19829;DHT22;10075;50.924;4.396;2022-12-24T15:39:53;13.10;99.90
19829;DHT22;10075;50.924;4.396;2022-12-24T15:42:22;13.10;99.90
19829;DHT22;10075;50.924;4.396;2022-12-24T15:44:57;13.00;99.90
19829;DHT22;10075;50.924;4.396;2022-12-24T15:47:27;13.00;99.90
19829;DHT22;10075;50.924;4.396;2022-12-24T15:50:08;13.00;99.90
19829;DHT22;10075;50.924;4.396;2022-12-24T15:52:40;12.80;99.90
19829;DHT22;10075;50.924;4.396;2022-12-24T15:55:24;12.80;99.90
19829;DHT22;10075;50.924;4.396;2022-12-24T15:57:52;12.70;99.90
19829;DHT22;10075;50.924;4.396;2022-12-24T16:00:21;12.80;99.90
19829;DHT22;10075;50.924;4.396;2022-12-24T16:02:48;12.80;99.90
19829;DHT22;10075;50.924;4.396;2022-12-24T16:05:32;12.80;99.90
19829;DHT22;10075;50.924;4.396;2022-12-24T16:08:20;12.80;99.90
19829;DHT22;10075;50.924;4.396;2022-12-24T16:10:49;12.70;99.90